sensor_id;sensor_type;location;lat;lon;timestamp;pressure;altitude;pressure_sealevel;temperature;humidity
10115;BME280;5097;43.260;27.812;2022-09-04T00:01:24;100586.84;;;15.93;79.95
10115;BME280;5097;43.260;27.812;2022-09-04T00:04:23;100586.03;;;15.78;80.27
10115;BME280;5097;43.260;27.812;2022-09-04T00:07:20;100581.38;;;15.82;80.43
10115;BME280;5097;43.260;27.812;2022-09-04T00:10:11;100590.38;;;16.06;79.44
10115;BME280;5097;43.260;27.812;2022-09-04T00:13:05;100580.22;;;15.99;79.78
10115;BME280;5097;43.260;27.812;2022-09-04T00:15:54;100595.66;;;15.81;80.20
10115;BME280;5097;43.260;27.812;2022-09-04T00:18:47;100585.44;;;15.87;80.30
10115;BME280;5097;43.260;27.812;2022-09-04T00:21:34;100587.56;;;15.82;80.60
10115;BME280;5097;43.260;27.812;2022-09-04T00:24:23;100581.84;;;15.61;81.45
10115;BME280;5097;43.260;27.812;2022-09-04T00:27:13;100584.59;;;15.59;81.59
10115;BME280;5097;43.260;27.812;2022-09-04T00:30:04;100584.44;;;15.75;80.93
10115;BME280;5097;43.260;27.812;2022-09-04T00:32:53;100580.00;;;15.49;81.98
10115;BME280;5097;43.260;27.812;2022-09-04T00:35:46;100585.56;;;15.58;81.68
10115;BME280;5097;43.260;27.812;2022-09-04T00:38:37;100593.22;;;15.50;82.03
10115;BME280;5097;43.260;27.812;2022-09-04T00:41:27;100580.06;;;15.74;80.84
10115;BME280;5097;43.260;27.812;2022-09-04T00:50:55;100577.53;;;15.86;80.17
10115;BME280;5097;43.260;27.812;2022-09-04T00:53:56;100569.13;;;15.52;81.37
10115;BME280;5097;43.260;27.812;2022-09-04T00:57:04;100573.44;;;15.67;80.81
10115;BME280;5097;43.260;27.812;2022-09-04T01:00:05;100570.25;;;15.62;81.02
10115;BME280;5097;43.260;27.812;2022-09-04T01:03:06;100588.03;;;15.74;80.10
10115;BME280;5097;43.260;27.812;2022-09-04T01:06:08;100587.66;;;15.40;81.46
10115;BME280;5097;43.260;27.812;2022-09-04T01:09:17;100569.34;;;15.49;81.28
10115;BME280;5097;43.260;27.812;2022-09-04T01:12:14;100568.84;;;15.29;81.56
10115;BME280;5097;43.260;27.812;2022-09-04T01:15:11;100587.28;;;15.59;81.10
10115;BME280;5097;43.260;27.812;2022-09-04T01:18:07;100590.44;;;15.52;81.11
10115;BME280;5097;43.260;27.812;2022-09-04T01:21:23;100576.03;;;15.41;81.34
10115;BME280;5097;43.260;27.812;2022-09-04T01:24:23;100591.44;;;15.36;81.98
10115;BME280;5097;43.260;27.812;2022-09-04T01:27:21;100568.16;;;15.13;82.59
10115;BME280;5097;43.260;27.812;2022-09-04T01:30:09;100594.91;;;15.24;82.85
10115;BME280;5097;43.260;27.812;2022-09-04T01:33:00;100575.38;;;15.11;83.96
10115;BME280;5097;43.260;27.812;2022-09-04T01:35:53;100554.50;;;15.04;83.44
10115;BME280;5097;43.260;27.812;2022-09-04T01:38:44;100571.06;;;15.22;83.31
10115;BME280;5097;43.260;27.812;2022-09-04T01:41:31;100547.72;;;15.13;82.83
10115;BME280;5097;43.260;27.812;2022-09-04T01:44:21;100573.31;;;15.01;84.01
10115;BME280;5097;43.260;27.812;2022-09-04T01:47:10;100557.19;;;15.17;82.83
10115;BME280;5097;43.260;27.812;2022-09-04T01:50:00;100584.88;;;15.15;82.81
10115;BME280;5097;43.260;27.812;2022-09-04T01:52:48;100561.91;;;15.14;83.01
10115;BME280;5097;43.260;27.812;2022-09-04T01:55:43;100567.75;;;15.19;82.68
10115;BME280;5097;43.260;27.812;2022-09-04T01:58:36;100526.22;;;14.89;82.99
10115;BME280;5097;43.260;27.812;2022-09-04T02:01:31;100562.69;;;15.29;82.11
10115;BME280;5097;43.260;27.812;2022-09-04T02:04:26;100571.38;;;15.18;82.80
10115;BME280;5097;43.260;27.812;2022-09-04T02:07:19;100568.75;;;15.03;83.79
10115;BME280;5097;43.260;27.812;2022-09-04T02:10:10;100579.84;;;15.10;83.40
10115;BME280;5097;43.260;27.812;2022-09-04T02:13:07;100578.59;;;15.16;83.26
10115;BME280;5097;43.260;27.812;2022-09-04T02:16:03;100572.69;;;14.98;83.64
10115;BME280;5097;43.260;27.812;2022-09-04T02:19:02;100559.97;;;14.88;83.61
10115;BME280;5097;43.260;27.812;2022-09-04T02:21:57;100580.44;;;15.01;83.71
10115;BME280;5097;43.260;27.812;2022-09-04T02:24:49;100574.56;;;15.23;82.84
10115;BME280;5097;43.260;27.812;2022-09-04T02:27:42;100595.88;;;15.23;82.70
10115;BME280;5097;43.260;27.812;2022-09-04T02:30:32;100582.34;;;14.99;83.44
10115;BME280;5097;43.260;27.812;2022-09-04T02:33:26;100554.66;;;14.88;82.87
10115;BME280;5097;43.260;27.812;2022-09-04T02:36:18;100519.84;;;14.64;82.71
10115;BME280;5097;43.260;27.812;2022-09-04T02:39:12;100596.75;;;15.36;81.89
10115;BME280;5097;43.260;27.812;2022-09-04T02:42:04;100583.53;;;15.22;82.01
10115;BME280;5097;43.260;27.812;2022-09-04T02:45:01;100599.88;;;15.16;81.79
10115;BME280;5097;43.260;27.812;2022-09-04T02:47:53;100599.53;;;15.35;81.04
10115;BME280;5097;43.260;27.812;2022-09-04T02:50:54;100598.69;;;15.34;80.97
10115;BME280;5097;43.260;27.812;2022-09-04T02:53:48;100600.09;;;15.13;81.28
10115;BME280;5097;43.260;27.812;2022-09-04T02:56:42;100621.19;;;15.43;79.75
10115;BME280;5097;43.260;27.812;2022-09-04T02:59:40;100599.59;;;15.20;80.19
10115;BME280;5097;43.260;27.812;2022-09-04T03:02:32;100627.50;;;15.55;79.69
10115;BME280;5097;43.260;27.812;2022-09-04T03:05:20;100630.66;;;15.74;78.21
10115;BME280;5097;43.260;27.812;2022-09-04T03:08:10;100631.94;;;15.41;79.38
10115;BME280;5097;43.260;27.812;2022-09-04T03:10:59;100615.00;;;15.42;79.50
10115;BME280;5097;43.260;27.812;2022-09-04T03:13:49;100615.91;;;15.83;77.57
10115;BME280;5097;43.260;27.812;2022-09-04T03:16:39;100612.03;;;15.74;77.57
10115;BME280;5097;43.260;27.812;2022-09-04T03:19:30;100621.31;;;15.82;77.42
10115;BME280;5097;43.260;27.812;2022-09-04T03:22:23;100590.53;;;15.23;78.68
10115;BME280;5097;43.260;27.812;2022-09-04T03:25:32;100637.00;;;15.32;79.09
10115;BME280;5097;43.260;27.812;2022-09-04T03:28:34;100617.13;;;15.37;77.84
10115;BME280;5097;43.260;27.812;2022-09-04T03:31:31;100638.31;;;15.39;79.15
10115;BME280;5097;43.260;27.812;2022-09-04T03:34:28;100639.06;;;15.41;78.40
10115;BME280;5097;43.260;27.812;2022-09-04T03:37:25;100652.91;;;15.61;78.29
10115;BME280;5097;43.260;27.812;2022-09-04T03:40:23;100658.06;;;15.07;78.91
10115;BME280;5097;43.260;27.812;2022-09-04T03:43:24;100661.63;;;15.35;78.44
10115;BME280;5097;43.260;27.812;2022-09-04T03:46:24;100622.34;;;14.97;79.61
10115;BME280;5097;43.260;27.812;2022-09-04T03:49:22;100668.69;;;15.22;79.19
10115;BME280;5097;43.260;27.812;2022-09-04T03:52:15;100667.25;;;15.16;79.43
10115;BME280;5097;43.260;27.812;2022-09-04T03:55:13;100667.53;;;15.26;78.36
10115;BME280;5097;43.260;27.812;2022-09-04T03:58:16;100666.13;;;15.20;78.12
10115;BME280;5097;43.260;27.812;2022-09-04T04:01:08;100676.84;;;15.33;78.36
10115;BME280;5097;43.260;27.812;2022-09-04T04:04:18;100671.88;;;15.41;78.08
10115;BME280;5097;43.260;27.812;2022-09-04T04:07:10;100669.66;;;15.06;79.26
10115;BME280;5097;43.260;27.812;2022-09-04T04:10:15;100663.13;;;14.98;80.36
10115;BME280;5097;43.260;27.812;2022-09-04T04:13:34;100653.50;;;14.52;81.20
10115;BME280;5097;43.260;27.812;2022-09-04T04:16:30;100657.13;;;14.65;80.88
10115;BME280;5097;43.260;27.812;2022-09-04T04:19:43;100683.72;;;14.65;81.31
10115;BME280;5097;43.260;27.812;2022-09-04T04:22:51;100665.13;;;14.94;79.97
10115;BME280;5097;43.260;27.812;2022-09-04T04:25:48;100664.06;;;14.82;80.49
10115;BME280;5097;43.260;27.812;2022-09-04T04:28:53;100676.13;;;15.17;79.40
10115;BME280;5097;43.260;27.812;2022-09-04T04:31:53;100674.13;;;15.06;79.05
10115;BME280;5097;43.260;27.812;2022-09-04T04:35:05;100673.56;;;15.15;78.12
10115;BME280;5097;43.260;27.812;2022-09-04T04:38:02;100674.94;;;15.35;77.79
10115;BME280;5097;43.260;27.812;2022-09-04T04:41:03;100673.59;;;15.28;77.34
10115;BME280;5097;43.260;27.812;2022-09-04T04:43:59;100672.97;;;15.52;76.32
10115;BME280;5097;43.260;27.812;2022-09-04T04:47:02;100666.75;;;15.66;75.58
10115;BME280;5097;43.260;27.812;2022-09-04T04:49:59;100674.00;;;15.76;74.77
10115;BME280;5097;43.260;27.812;2022-09-04T04:52:52;100669.72;;;15.61;74.41
10115;BME280;5097;43.260;27.812;2022-09-04T04:55:43;100665.44;;;15.86;73.94
10115;BME280;5097;43.260;27.812;2022-09-04T04:58:51;100672.47;;;16.14;72.68
10115;BME280;5097;43.260;27.812;2022-09-04T05:01:48;100644.09;;;16.13;71.19
10115;BME280;5097;43.260;27.812;2022-09-04T05:04:41;100665.88;;;16.46;70.85
10115;BME280;5097;43.260;27.812;2022-09-04T05:07:34;100675.47;;;16.61;70.28
10115;BME280;5097;43.260;27.812;2022-09-04T05:10:29;100667.03;;;16.93;69.17
10115;BME280;5097;43.260;27.812;2022-09-04T05:13:21;100677.81;;;16.53;69.87
10115;BME280;5097;43.260;27.812;2022-09-04T05:16:13;100683.13;;;16.27;70.30
10115;BME280;5097;43.260;27.812;2022-09-04T05:19:06;100682.25;;;16.14;70.59
10115;BME280;5097;43.260;27.812;2022-09-04T05:21:58;100691.06;;;16.54;69.26
10115;BME280;5097;43.260;27.812;2022-09-04T05:24:56;100686.56;;;16.42;70.59
10115;BME280;5097;43.260;27.812;2022-09-04T05:27:52;100689.56;;;16.76;69.54
10115;BME280;5097;43.260;27.812;2022-09-04T05:30:46;100700.88;;;16.67;69.51
10115;BME280;5097;43.260;27.812;2022-09-04T05:33:37;100692.94;;;16.78;69.39
10115;BME280;5097;43.260;27.812;2022-09-04T05:36:31;100698.94;;;16.56;69.64
10115;BME280;5097;43.260;27.812;2022-09-04T05:39:26;100693.59;;;16.82;69.23
10115;BME280;5097;43.260;27.812;2022-09-04T05:42:36;100700.66;;;16.57;69.86
10115;BME280;5097;43.260;27.812;2022-09-04T05:45:24;100706.59;;;16.35;70.69
10115;BME280;5097;43.260;27.812;2022-09-04T05:48:21;100710.78;;;16.65;69.23
10115;BME280;5097;43.260;27.812;2022-09-04T05:51:36;100675.03;;;16.67;69.15
10115;BME280;5097;43.260;27.812;2022-09-04T05:54:46;100731.59;;;17.11;67.60
10115;BME280;5097;43.260;27.812;2022-09-04T05:57:48;100714.53;;;17.14;67.28
10115;BME280;5097;43.260;27.812;2022-09-04T06:00:43;100717.88;;;17.41;66.11
10115;BME280;5097;43.260;27.812;2022-09-04T06:07:07;100731.44;;;17.75;64.23
10115;BME280;5097;43.260;27.812;2022-09-04T06:09:58;100721.56;;;17.15;66.07
10115;BME280;5097;43.260;27.812;2022-09-04T06:13:15;100732.88;;;17.18;65.85
10115;BME280;5097;43.260;27.812;2022-09-04T06:16:17;100730.03;;;17.46;65.29
10115;BME280;5097;43.260;27.812;2022-09-04T06:19:18;100747.31;;;17.53;64.88
10115;BME280;5097;43.260;27.812;2022-09-04T06:22:20;100743.63;;;17.67;64.64
10115;BME280;5097;43.260;27.812;2022-09-04T06:25:19;100752.41;;;17.69;64.49
10115;BME280;5097;43.260;27.812;2022-09-04T06:28:15;100749.88;;;17.17;65.91
10115;BME280;5097;43.260;27.812;2022-09-04T06:31:22;100746.06;;;17.46;65.25
10115;BME280;5097;43.260;27.812;2022-09-04T06:34:15;100745.06;;;17.84;64.65
10115;BME280;5097;43.260;27.812;2022-09-04T06:37:15;100705.28;;;17.92;62.52
10115;BME280;5097;43.260;27.812;2022-09-04T06:40:21;100750.94;;;17.89;62.67
10115;BME280;5097;43.260;27.812;2022-09-04T06:43:16;100737.69;;;18.12;61.88
10115;BME280;5097;43.260;27.812;2022-09-04T06:46:18;100749.44;;;17.98;61.98
10115;BME280;5097;43.260;27.812;2022-09-04T06:49:09;100743.31;;;18.20;61.03
10115;BME280;5097;43.260;27.812;2022-09-04T06:52:06;100738.09;;;18.54;60.29
10115;BME280;5097;43.260;27.812;2022-09-04T06:54:57;100747.78;;;18.55;59.84
10115;BME280;5097;43.260;27.812;2022-09-04T06:58:12;100721.16;;;18.42;59.15
10115;BME280;5097;43.260;27.812;2022-09-04T07:01:05;100735.13;;;18.46;60.22
10115;BME280;5097;43.260;27.812;2022-09-04T07:04:03;100744.44;;;18.75;59.40
10115;BME280;5097;43.260;27.812;2022-09-04T07:06:59;100754.34;;;18.39;60.71
10115;BME280;5097;43.260;27.812;2022-09-04T07:09:52;100744.44;;;18.87;59.61
10115;BME280;5097;43.260;27.812;2022-09-04T07:16:35;100742.66;;;18.99;59.62
10115;BME280;5097;43.260;27.812;2022-09-04T07:19:35;100752.59;;;18.85;60.35
10115;BME280;5097;43.260;27.812;2022-09-04T07:22:39;100753.28;;;19.12;60.12
10115;BME280;5097;43.260;27.812;2022-09-04T07:25:36;100755.94;;;19.00;59.84
10115;BME280;5097;43.260;27.812;2022-09-04T07:28:42;100759.00;;;19.18;59.60
10115;BME280;5097;43.260;27.812;2022-09-04T07:31:35;100758.13;;;19.29;59.47
10115;BME280;5097;43.260;27.812;2022-09-04T07:34:28;100768.13;;;19.38;58.85
10115;BME280;5097;43.260;27.812;2022-09-04T07:37:23;100776.38;;;19.35;59.01
10115;BME280;5097;43.260;27.812;2022-09-04T07:40:14;100744.81;;;19.62;58.27
10115;BME280;5097;43.260;27.812;2022-09-04T07:43:05;100768.31;;;19.69;58.97
10115;BME280;5097;43.260;27.812;2022-09-04T07:45:59;100751.00;;;19.62;58.67
10115;BME280;5097;43.260;27.812;2022-09-04T07:48:50;100767.69;;;19.88;58.07
10115;BME280;5097;43.260;27.812;2022-09-04T07:51:41;100753.19;;;19.91;57.92
10115;BME280;5097;43.260;27.812;2022-09-04T07:54:38;100768.53;;;19.89;57.19
10115;BME280;5097;43.260;27.812;2022-09-04T08:00:42;100767.19;;;19.95;57.20
10115;BME280;5097;43.260;27.812;2022-09-04T08:04:07;100782.00;;;20.10;56.38
10115;BME280;5097;43.260;27.812;2022-09-04T08:06:58;100776.63;;;20.10;56.73
10115;BME280;5097;43.260;27.812;2022-09-04T08:09:53;100781.44;;;20.27;55.97
10115;BME280;5097;43.260;27.812;2022-09-04T08:12:55;100772.91;;;20.55;55.30
10115;BME280;5097;43.260;27.812;2022-09-04T08:15:50;100773.22;;;20.40;55.34
10115;BME280;5097;43.260;27.812;2022-09-04T08:18:51;100777.59;;;20.63;55.92
10115;BME280;5097;43.260;27.812;2022-09-04T08:21:46;100765.59;;;20.78;55.30
10115;BME280;5097;43.260;27.812;2022-09-04T08:24:53;100771.75;;;21.21;53.75
10115;BME280;5097;43.260;27.812;2022-09-04T08:28:09;100744.91;;;21.40;53.56
10115;BME280;5097;43.260;27.812;2022-09-04T08:31:01;100747.44;;;21.32;52.22
10115;BME280;5097;43.260;27.812;2022-09-04T08:34:22;100750.47;;;22.38;51.00
10115;BME280;5097;43.260;27.812;2022-09-04T08:37:20;100754.97;;;21.89;51.47
10115;BME280;5097;43.260;27.812;2022-09-04T08:44:03;100743.34;;;21.79;52.49
10115;BME280;5097;43.260;27.812;2022-09-04T08:50:32;100753.84;;;22.50;50.40
10115;BME280;5097;43.260;27.812;2022-09-04T08:56:48;100722.97;;;21.66;52.49
10115;BME280;5097;43.260;27.812;2022-09-04T09:00:03;100734.31;;;22.19;50.99
10115;BME280;5097;43.260;27.812;2022-09-04T09:03:22;100730.59;;;21.81;51.06
10115;BME280;5097;43.260;27.812;2022-09-04T09:10:20;100732.31;;;22.01;50.22
10115;BME280;5097;43.260;27.812;2022-09-04T09:13:37;100726.94;;;22.01;49.82
10115;BME280;5097;43.260;27.812;2022-09-04T09:16:41;100709.91;;;22.30;49.31
10115;BME280;5097;43.260;27.812;2022-09-04T09:19:41;100702.97;;;22.94;49.11
10115;BME280;5097;43.260;27.812;2022-09-04T09:22:42;100675.88;;;22.68;49.23
10115;BME280;5097;43.260;27.812;2022-09-04T09:25:41;100705.69;;;22.37;49.77
10115;BME280;5097;43.260;27.812;2022-09-04T09:29:00;100713.28;;;23.37;48.53
10115;BME280;5097;43.260;27.812;2022-09-04T09:32:30;100720.13;;;22.56;49.50
10115;BME280;5097;43.260;27.812;2022-09-04T09:39:11;100728.31;;;23.67;47.78
10115;BME280;5097;43.260;27.812;2022-09-04T09:49:29;100727.91;;;23.34;47.29
10115;BME280;5097;43.260;27.812;2022-09-04T09:56:01;100727.06;;;23.80;46.75
10115;BME280;5097;43.260;27.812;2022-09-04T10:08:52;100739.13;;;24.03;46.36
10115;BME280;5097;43.260;27.812;2022-09-04T10:15:41;100738.97;;;24.23;46.18
10115;BME280;5097;43.260;27.812;2022-09-04T10:25:52;100739.03;;;24.31;44.93
10115;BME280;5097;43.260;27.812;2022-09-04T10:32:23;100745.22;;;24.05;45.39
10115;BME280;5097;43.260;27.812;2022-09-04T10:35:20;100734.19;;;23.99;45.56
10115;BME280;5097;43.260;27.812;2022-09-04T10:38:25;100738.34;;;23.75;46.42
10115;BME280;5097;43.260;27.812;2022-09-04T10:41:36;100729.47;;;24.19;45.67
10115;BME280;5097;43.260;27.812;2022-09-04T10:44:38;100727.66;;;23.73;46.06
10115;BME280;5097;43.260;27.812;2022-09-04T10:47:53;100710.19;;;23.77;45.78
10115;BME280;5097;43.260;27.812;2022-09-04T10:51:01;100730.56;;;24.70;44.47
10115;BME280;5097;43.260;27.812;2022-09-04T10:57:31;100747.88;;;24.86;44.18
10115;BME280;5097;43.260;27.812;2022-09-04T11:00:25;100738.53;;;25.41;42.87
10115;BME280;5097;43.260;27.812;2022-09-04T11:03:28;100751.63;;;25.70;42.08
10115;BME280;5097;43.260;27.812;2022-09-04T11:06:39;100750.28;;;24.89;43.51
10115;BME280;5097;43.260;27.812;2022-09-04T11:09:43;100743.47;;;24.40;43.42
10115;BME280;5097;43.260;27.812;2022-09-04T11:12:50;100746.41;;;24.65;43.81
10115;BME280;5097;43.260;27.812;2022-09-04T11:15:54;100731.34;;;24.00;44.78
10115;BME280;5097;43.260;27.812;2022-09-04T11:19:02;100741.59;;;24.15;45.26
10115;BME280;5097;43.260;27.812;2022-09-04T11:22:30;100737.03;;;25.12;42.24
10115;BME280;5097;43.260;27.812;2022-09-04T11:25:52;100735.22;;;24.86;42.60
10115;BME280;5097;43.260;27.812;2022-09-04T11:29:04;100728.53;;;24.72;43.38
10115;BME280;5097;43.260;27.812;2022-09-04T11:32:05;100746.34;;;24.39;44.09
10115;BME280;5097;43.260;27.812;2022-09-04T11:35:25;100733.78;;;25.00;42.51
10115;BME280;5097;43.260;27.812;2022-09-04T11:38:30;100732.38;;;25.73;41.33
10115;BME280;5097;43.260;27.812;2022-09-04T11:41:46;100722.63;;;26.38;39.78
10115;BME280;5097;43.260;27.812;2022-09-04T11:45:04;100730.41;;;26.33;39.12
10115;BME280;5097;43.260;27.812;2022-09-04T11:55:35;100722.78;;;24.05;42.84
10115;BME280;5097;43.260;27.812;2022-09-04T11:58:45;100720.25;;;24.48;42.30
10115;BME280;5097;43.260;27.812;2022-09-04T12:01:52;100726.50;;;24.04;43.27
10115;BME280;5097;43.260;27.812;2022-09-04T12:05:02;100710.72;;;24.80;41.14
10115;BME280;5097;43.260;27.812;2022-09-04T12:08:02;100709.00;;;24.79;41.31
10115;BME280;5097;43.260;27.812;2022-09-04T12:11:09;100707.66;;;24.83;41.67
10115;BME280;5097;43.260;27.812;2022-09-04T12:14:15;100683.97;;;25.11;40.53
10115;BME280;5097;43.260;27.812;2022-09-04T12:17:27;100693.97;;;25.62;39.54
10115;BME280;5097;43.260;27.812;2022-09-04T12:27:16;100697.56;;;26.28;37.18
10115;BME280;5097;43.260;27.812;2022-09-04T12:30:06;100697.53;;;25.27;39.76
10115;BME280;5097;43.260;27.812;2022-09-04T12:33:27;100683.75;;;24.96;40.63
10115;BME280;5097;43.260;27.812;2022-09-04T12:36:33;100698.91;;;25.32;40.22
10115;BME280;5097;43.260;27.812;2022-09-04T12:39:40;100698.03;;;25.90;38.98
10115;BME280;5097;43.260;27.812;2022-09-04T12:42:31;100698.31;;;25.54;39.24
10115;BME280;5097;43.260;27.812;2022-09-04T12:45:23;100665.03;;;24.68;40.34
10115;BME280;5097;43.260;27.812;2022-09-04T12:48:16;100703.75;;;24.77;40.92
10115;BME280;5097;43.260;27.812;2022-09-04T12:51:07;100707.88;;;25.24;40.01
10115;BME280;5097;43.260;27.812;2022-09-04T12:54:10;100699.47;;;25.35;39.89
10115;BME280;5097;43.260;27.812;2022-09-04T12:57:04;100692.44;;;25.08;40.98
10115;BME280;5097;43.260;27.812;2022-09-04T13:00:01;100694.97;;;24.49;42.67
10115;BME280;5097;43.260;27.812;2022-09-04T13:02:57;100677.19;;;24.20;42.68
10115;BME280;5097;43.260;27.812;2022-09-04T13:05:55;100676.06;;;24.49;42.35
10115;BME280;5097;43.260;27.812;2022-09-04T13:08:51;100694.72;;;24.95;41.71
10115;BME280;5097;43.260;27.812;2022-09-04T13:11:49;100688.22;;;24.79;41.99
10115;BME280;5097;43.260;27.812;2022-09-04T13:14:51;100682.84;;;25.22;41.29
10115;BME280;5097;43.260;27.812;2022-09-04T13:17:49;100682.97;;;25.88;39.54
10115;BME280;5097;43.260;27.812;2022-09-04T13:20:43;100687.09;;;26.08;39.29
10115;BME280;5097;43.260;27.812;2022-09-04T13:23:44;100696.94;;;25.34;40.42
10115;BME280;5097;43.260;27.812;2022-09-04T13:26:50;100701.38;;;25.08;41.17
10115;BME280;5097;43.260;27.812;2022-09-04T13:29:47;100647.22;;;24.84;41.11
10115;BME280;5097;43.260;27.812;2022-09-04T13:32:55;100644.94;;;24.63;41.54
10115;BME280;5097;43.260;27.812;2022-09-04T13:36:00;100691.06;;;24.25;42.81
10115;BME280;5097;43.260;27.812;2022-09-04T13:42:34;100690.69;;;24.64;41.32
10115;BME280;5097;43.260;27.812;2022-09-04T13:45:25;100689.78;;;24.90;41.33
10115;BME280;5097;43.260;27.812;2022-09-04T13:48:17;100685.31;;;25.07;41.14
10115;BME280;5097;43.260;27.812;2022-09-04T13:51:07;100683.25;;;25.43;40.44
10115;BME280;5097;43.260;27.812;2022-09-04T13:54:01;100692.66;;;25.31;40.34
10115;BME280;5097;43.260;27.812;2022-09-04T13:56:53;100661.31;;;25.47;40.45
10115;BME280;5097;43.260;27.812;2022-09-04T13:59:41;100668.78;;;25.69;39.38
10115;BME280;5097;43.260;27.812;2022-09-04T14:02:26;100663.69;;;25.50;40.20
10115;BME280;5097;43.260;27.812;2022-09-04T14:05:17;100695.97;;;24.74;41.12
10115;BME280;5097;43.260;27.812;2022-09-04T14:08:06;100694.44;;;24.71;41.01
10115;BME280;5097;43.260;27.812;2022-09-04T14:11:23;100700.41;;;25.26;39.99
10115;BME280;5097;43.260;27.812;2022-09-04T14:14:34;100707.34;;;25.71;39.63
10115;BME280;5097;43.260;27.812;2022-09-04T14:17:29;100706.97;;;24.81;41.67
10115;BME280;5097;43.260;27.812;2022-09-04T14:20:22;100710.16;;;25.02;41.53
10115;BME280;5097;43.260;27.812;2022-09-04T14:23:12;100707.59;;;25.43;40.95
10115;BME280;5097;43.260;27.812;2022-09-04T14:26:05;100714.94;;;25.25;41.14
10115;BME280;5097;43.260;27.812;2022-09-04T14:29:00;100711.50;;;24.54;41.94
10115;BME280;5097;43.260;27.812;2022-09-04T14:31:54;100711.75;;;24.87;41.49
10115;BME280;5097;43.260;27.812;2022-09-04T14:34:48;100713.75;;;24.58;41.71
10115;BME280;5097;43.260;27.812;2022-09-04T14:37:58;100693.72;;;24.17;42.93
10115;BME280;5097;43.260;27.812;2022-09-04T14:40:54;100700.03;;;24.07;43.21
10115;BME280;5097;43.260;27.812;2022-09-04T14:43:48;100713.94;;;24.13;43.11
10115;BME280;5097;43.260;27.812;2022-09-04T14:46:46;100715.16;;;24.44;42.62
10115;BME280;5097;43.260;27.812;2022-09-04T14:49:40;100712.00;;;24.05;42.74
10115;BME280;5097;43.260;27.812;2022-09-04T14:52:31;100700.34;;;24.04;42.53
10115;BME280;5097;43.260;27.812;2022-09-04T14:55:26;100706.72;;;23.85;43.06
10115;BME280;5097;43.260;27.812;2022-09-04T14:58:17;100714.81;;;23.67;43.49
10115;BME280;5097;43.260;27.812;2022-09-04T15:01:04;100707.31;;;23.61;44.08
10115;BME280;5097;43.260;27.812;2022-09-04T15:03:55;100708.03;;;23.81;43.58
10115;BME280;5097;43.260;27.812;2022-09-04T15:06:44;100710.19;;;23.77;44.14
10115;BME280;5097;43.260;27.812;2022-09-04T15:09:52;100699.56;;;24.12;43.41
10115;BME280;5097;43.260;27.812;2022-09-04T15:12:40;100702.56;;;23.73;43.74
10115;BME280;5097;43.260;27.812;2022-09-04T15:15:30;100702.09;;;24.14;43.51
10115;BME280;5097;43.260;27.812;2022-09-04T15:18:20;100708.91;;;24.62;42.42
10115;BME280;5097;43.260;27.812;2022-09-04T15:21:09;100710.56;;;24.37;43.68
10115;BME280;5097;43.260;27.812;2022-09-04T15:24:13;100712.25;;;24.38;42.39
10115;BME280;5097;43.260;27.812;2022-09-04T15:27:03;100680.13;;;23.36;51.84
10115;BME280;5097;43.260;27.812;2022-09-04T15:30:01;100705.16;;;23.92;52.09
10115;BME280;5097;43.260;27.812;2022-09-04T15:32:48;100705.53;;;23.52;53.48
10115;BME280;5097;43.260;27.812;2022-09-04T15:35:34;100711.06;;;23.32;54.52
10115;BME280;5097;43.260;27.812;2022-09-04T15:38:20;100701.38;;;24.03;52.91
10115;BME280;5097;43.260;27.812;2022-09-04T15:41:15;100714.66;;;24.23;52.52
10115;BME280;5097;43.260;27.812;2022-09-04T15:44:12;100713.75;;;23.96;53.27
10115;BME280;5097;43.260;27.812;2022-09-04T15:47:04;100712.66;;;24.25;52.45
10115;BME280;5097;43.260;27.812;2022-09-04T15:49:52;100723.47;;;24.25;52.88
10115;BME280;5097;43.260;27.812;2022-09-04T15:52:39;100722.91;;;24.39;52.59
10115;BME280;5097;43.260;27.812;2022-09-04T15:55:28;100716.69;;;24.21;52.79
10115;BME280;5097;43.260;27.812;2022-09-04T15:58:17;100723.16;;;23.92;53.91
10115;BME280;5097;43.260;27.812;2022-09-04T16:01:11;100680.34;;;23.61;54.05
10115;BME280;5097;43.260;27.812;2022-09-04T16:04:04;100715.53;;;23.87;53.62
10115;BME280;5097;43.260;27.812;2022-09-04T16:07:13;100718.09;;;23.61;54.48
10115;BME280;5097;43.260;27.812;2022-09-04T16:10:09;100716.75;;;23.29;55.44
10115;BME280;5097;43.260;27.812;2022-09-04T16:12:58;100709.66;;;23.28;55.62
10115;BME280;5097;43.260;27.812;2022-09-04T16:15:45;100709.44;;;23.39;55.19
10115;BME280;5097;43.260;27.812;2022-09-04T16:18:46;100711.56;;;23.18;55.95
10115;BME280;5097;43.260;27.812;2022-09-04T16:21:42;100713.56;;;23.06;56.19
10115;BME280;5097;43.260;27.812;2022-09-04T16:24:39;100700.72;;;22.90;56.26
10115;BME280;5097;43.260;27.812;2022-09-04T16:27:27;100718.69;;;22.99;55.98
10115;BME280;5097;43.260;27.812;2022-09-04T16:30:24;100718.03;;;22.87;56.68
10115;BME280;5097;43.260;27.812;2022-09-04T16:33:19;100719.06;;;22.76;56.76
10115;BME280;5097;43.260;27.812;2022-09-04T16:36:16;100718.00;;;22.50;58.05
10115;BME280;5097;43.260;27.812;2022-09-04T16:39:06;100721.41;;;22.32;58.65
10115;BME280;5097;43.260;27.812;2022-09-04T16:41:58;100728.63;;;21.83;60.31
10115;BME280;5097;43.260;27.812;2022-09-04T16:44:56;100716.16;;;21.62;60.48
10115;BME280;5097;43.260;27.812;2022-09-04T16:47:48;100716.13;;;21.12;60.96
10115;BME280;5097;43.260;27.812;2022-09-04T16:50:39;100731.06;;;20.73;62.13
10115;BME280;5097;43.260;27.812;2022-09-04T16:53:32;100735.25;;;20.45;62.63
10115;BME280;5097;43.260;27.812;2022-09-04T16:56:23;100742.78;;;20.51;62.09
10115;BME280;5097;43.260;27.812;2022-09-04T16:59:21;100751.19;;;20.47;62.49
10115;BME280;5097;43.260;27.812;2022-09-04T17:02:16;100729.84;;;20.24;61.62